Time;durP1;ratioP1;P1;durP2;ratioP2;P2;SDS_P1;SDS_P2;PMS_P1;PMS_P2;Temp;Humidity;BMP_temperature;BMP_pressure;BME280_temperature;BME280_humidity;BME280_pressure;Samples;Min_cycle;Max_cycle;Signal;HPM_P1;HPM_P2
2021/01/01 00:01:00;;;;;;;15.73;13.93;;;-2.30;1.40;;;-1.95;100.00;94185.91;658515;216;23533;-73
2021/01/01 00:03:34;;;;;;;12.53;11.27;;;-2.10;1.40;;;-1.95;100.00;94187.66;640646;221;24553;-72
2021/01/01 00:06:02;;;;;;;12.13;10.90;;;-2.10;1.40;;;-1.99;100.00;94189.34;641596;220;24558;-73
2021/01/01 00:08:31;;;;;;;13.02;11.30;;;-2.20;1.40;;;-1.94;100.00;94196.00;652877;216;31762;-72
2021/01/01 00:10:59;;;;;;;11.30;10.07;;;-2.30;1.40;;;-1.97;100.00;94199.76;654712;216;23447;-72
2021/01/01 00:13:28;;;;;;;11.00;9.43;;;-2.30;1.40;;;-2.07;100.00;94200.79;657387;215;24476;-72
2021/01/01 00:15:56;;;;;;;10.30;9.30;;;-2.30;1.40;;;-2.12;100.00;94200.66;651382;215;31663;-71
2021/01/01 00:18:25;;;;;;;8.47;7.67;;;-2.40;1.40;;;-2.09;100.00;94196.10;654489;216;23554;-72
2021/01/01 00:23:28;;;;;;;11.63;9.90;;;-2.40;1.40;;;-1.95;100.00;94200.45;645318;212;31630;-72
2021/01/01 00:25:56;;;;;;;10.80;9.30;;;-2.20;1.40;;;-1.91;100.00;94198.09;642020;221;23524;-72
2021/01/01 00:28:25;;;;;;;10.43;9.43;;;-2.20;1.40;;;-2.04;100.00;94207.26;642098;220;24556;-71
2021/01/01 00:30:53;;;;;;;12.10;9.07;;;-2.50;1.40;;;-2.12;100.00;94206.33;641735;221;24513;-72
2021/01/01 00:33:21;;;;;;;10.00;8.87;;;-2.50;1.40;;;-2.31;100.00;94204.64;639365;221;24531;-72
2021/01/01 00:35:50;;;;;;;13.80;9.63;;;-2.90;1.40;;;-2.27;100.00;94205.42;640825;220;24551;-72
2021/01/01 00:38:18;;;;;;;11.10;9.50;;;-2.90;1.40;;;-2.37;100.00;94192.34;639484;220;25400;-73
2021/01/01 00:40:48;;;;;;;9.97;8.90;;;-2.90;1.40;;;-2.67;100.00;94191.28;633951;224;26659;-72
2021/01/01 00:43:16;;;;;;;12.30;11.10;;;-3.10;1.40;;;-2.64;100.00;94194.11;651284;215;31568;-72
2021/01/01 00:45:44;;;;;;;14.43;11.70;;;-3.10;1.40;;;-2.44;100.00;94193.06;642643;220;23460;-73
2021/01/01 00:48:13;;;;;;;14.98;13.23;;;-2.80;1.40;;;-2.40;100.00;94192.80;639270;220;31982;-72
2021/01/01 00:50:42;;;;;;;15.13;13.62;;;-2.80;1.40;;;-2.42;100.00;94188.78;648828;215;31620;-72
2021/01/01 00:53:10;;;;;;;14.23;12.07;;;-2.90;1.40;;;-2.46;100.00;94191.20;643787;220;23526;-71
2021/01/01 00:55:38;;;;;;;15.45;13.85;;;-2.80;1.40;;;-2.47;100.00;94188.54;636455;220;32674;-71
2021/01/01 00:58:07;;;;;;;15.00;13.23;;;-2.90;1.40;;;-2.45;100.00;94182.50;647061;215;31726;-71
2021/01/01 01:00:36;;;;;;;14.02;12.63;;;-2.90;1.40;;;-2.49;100.00;94177.48;652620;216;31620;-72
2021/01/01 01:03:05;;;;;;;12.70;10.90;;;-3.00;1.40;;;-2.53;100.00;94185.16;659379;216;26899;-72
2021/01/01 01:05:33;;;;;;;16.50;11.67;;;-3.10;1.40;;;-2.42;100.00;94180.03;655165;216;24475;-72
2021/01/01 01:08:01;;;;;;;14.38;12.30;;;-2.80;1.40;;;-2.35;100.00;94180.31;637462;220;31941;-72
2021/01/01 01:10:30;;;;;;;13.77;11.00;;;-2.70;1.40;;;-2.32;100.00;94186.70;642759;221;23481;-72
2021/01/01 01:12:58;;;;;;;18.42;14.63;;;-2.70;1.40;;;-2.29;100.00;94184.23;629719;223;32188;-72
2021/01/01 01:15:27;;;;;;;18.55;15.70;;;-2.80;1.40;;;-2.33;100.00;94179.59;637959;221;31894;-71
2021/01/01 01:17:55;;;;;;;15.13;13.57;;;-2.90;1.40;;;-2.55;100.00;94181.48;641028;220;23503;-71
2021/01/01 01:20:24;;;;;;;15.40;12.60;;;-3.10;1.40;;;-2.54;100.00;94174.91;641158;221;24518;-72
2021/01/01 01:22:52;;;;;;;17.00;13.57;;;-3.20;1.40;;;-2.43;100.00;94168.56;640032;220;24607;-72
2021/01/01 01:25:21;;;;;;;16.52;13.90;;;-3.10;1.40;;;-2.34;100.00;94166.05;641008;220;31877;-72
2021/01/01 01:27:49;;;;;;;14.77;12.27;;;-3.00;1.40;;;-2.29;100.00;94165.38;654691;215;23463;-72
2021/01/01 01:30:17;;;;;;;15.07;11.00;;;-2.80;1.40;;;-2.30;100.00;94167.55;640772;221;25911;-73
2021/01/01 01:32:46;;;;;;;13.40;12.00;;;-2.70;1.40;;;-2.28;100.00;94167.20;641309;220;24627;-72
2021/01/01 01:35:14;;;;;;;17.85;15.15;;;-2.70;1.40;;;-2.20;100.00;94170.14;634307;223;31929;-72
2021/01/01 01:37:43;;;;;;;18.00;12.70;;;-2.60;1.40;;;-2.12;100.00;94164.50;638776;221;23500;-72
2021/01/01 01:40:11;;;;;;;15.88;14.18;;;-2.50;1.40;;;-2.03;100.00;94163.03;649423;215;31879;-73
2021/01/01 01:42:40;;;;;;;13.60;11.70;;;-2.50;1.40;;;-1.99;100.00;94166.94;656540;215;23442;-72
2021/01/01 01:45:09;;;;;;;16.95;13.88;;;-2.60;1.40;;;-1.93;100.00;94164.36;640260;220;43263;-71
2021/01/01 01:47:37;;;;;;;15.05;13.55;;;-2.50;1.40;;;-1.84;100.00;94167.45;637283;220;32374;-72
2021/01/01 01:50:06;;;;;;;15.27;13.77;;;-2.50;1.40;;;-2.05;100.00;94168.52;651060;215;31788;-71
2021/01/01 01:52:35;;;;;;;13.63;11.77;;;-2.70;1.40;;;-2.05;100.00;94170.06;644235;220;28786;-73
2021/01/01 01:55:04;;;;;;;12.10;10.63;;;-2.70;1.40;;;-2.18;100.00;94175.83;658986;215;24472;-72
2021/01/01 01:57:32;;;;;;;12.07;9.53;;;-2.70;1.40;;;-2.25;100.00;94174.17;641316;220;24515;-73
2021/01/01 02:00:01;;;;;;;11.20;9.20;;;-2.80;1.40;;;-2.40;100.00;94173.91;645680;220;24595;-72
2021/01/01 02:02:30;;;;;;;11.77;9.83;;;-2.80;1.40;;;-2.43;100.00;94170.89;632414;225;24598;-72
2021/01/01 02:04:58;;;;;;;14.73;11.55;;;-2.90;1.40;;;-2.42;100.00;94172.34;651335;215;42263;-72
2021/01/01 02:07:27;;;;;;;13.43;11.00;;;-2.90;1.40;;;-2.37;100.00;94178.55;655465;215;24900;-72
2021/01/01 02:09:55;;;;;;;17.97;10.80;;;-3.00;1.40;;;-2.32;100.00;94177.78;656112;215;30819;-72
2021/01/01 02:12:23;;;;;;;12.17;10.40;;;-3.00;1.40;;;-2.36;100.00;94177.77;656888;216;29873;-72
2021/01/01 02:14:52;;;;;;;11.80;9.00;;;-3.10;1.40;;;-2.31;100.00;94177.52;654047;216;24500;-71
2021/01/01 02:17:20;;;;;;;14.82;11.30;;;-3.10;1.40;;;-2.30;100.00;94177.11;649152;216;31591;-73
2021/01/01 02:19:49;;;;;;;13.87;10.83;;;-3.00;1.40;;;-2.33;100.00;94178.63;639130;221;23516;-72
2021/01/01 02:22:17;;;;;;;12.05;10.75;;;-2.90;1.40;;;-2.25;100.00;94180.42;635170;221;32361;-72
2021/01/01 02:24:45;;;;;;;13.05;11.05;;;-2.80;1.40;;;-2.18;100.00;94182.84;652313;216;32298;-73
2021/01/01 02:27:14;;;;;;;13.02;11.63;;;-2.70;1.40;;;-2.12;100.00;94180.31;647834;216;31731;-73
2021/01/01 02:29:42;;;;;;;12.00;9.90;;;-2.70;1.40;;;-2.15;100.00;94180.73;656785;216;23469;-72
2021/01/01 02:32:11;;;;;;;11.67;9.13;;;-2.90;1.40;;;-2.18;100.00;94181.56;655347;216;24457;-73
2021/01/01 02:34:39;;;;;;;11.20;10.10;;;-3.00;1.40;;;-2.12;100.00;94178.67;636088;221;31774;-73
2021/01/01 02:37:07;;;;;;;12.88;11.57;;;-2.90;1.40;;;-2.08;100.00;94167.55;636966;221;31756;-74
2021/01/01 02:39:37;;;;;;;10.20;9.20;;;-2.80;1.40;;;-2.19;100.00;94167.38;655539;216;23452;-73
2021/01/01 02:42:05;;;;;;;12.60;10.60;;;-2.80;1.40;;;-2.20;100.00;94165.30;650399;216;31733;-73
2021/01/01 02:44:33;;;;;;;11.23;10.10;;;-2.90;1.40;;;-2.33;100.00;94163.08;656476;214;23467;-71
2021/01/01 02:47:01;;;;;;;12.85;11.10;;;-3.00;1.40;;;-2.22;100.00;94166.73;653142;215;31572;-73
2021/01/01 02:49:30;;;;;;;11.40;9.20;;;-2.80;1.40;;;-2.04;100.00;94166.59;656695;215;23452;-73
2021/01/01 02:51:59;;;;;;;10.17;9.10;;;-2.60;1.40;;;-1.90;100.00;94155.77;657290;215;24494;-73
2021/01/01 02:54:27;;;;;;;11.20;8.80;;;-2.50;1.40;;;-1.82;100.00;94160.34;657672;215;24476;-73
2021/01/01 02:56:56;;;;;;;11.60;9.98;;;-2.50;1.40;;;-1.82;100.00;94165.81;633847;220;31842;-72
2021/01/01 02:59:24;;;;;;;11.33;10.07;;;-2.60;1.40;;;-1.90;100.00;94156.83;641621;220;23476;-73
2021/01/01 03:01:53;;;;;;;9.33;8.43;;;-2.50;1.40;;;-1.90;100.00;94157.84;638212;223;24511;-72
2021/01/01 03:04:21;;;;;;;9.40;8.40;;;-2.60;1.40;;;-1.93;100.00;94157.34;656803;215;24478;-72
2021/01/01 03:06:49;;;;;;;12.18;10.68;;;-2.60;1.40;;;-1.91;100.00;94162.77;636485;220;31733;-72
2021/01/01 03:11:52;;;;;;;12.27;10.50;;;-2.40;1.40;;;-1.74;99.21;94158.89;633434;221;31923;-73
2021/01/01 03:14:20;;;;;;;11.33;9.10;;;-2.30;1.40;;;-1.60;97.71;94166.34;623554;225;33313;-73
2021/01/01 03:16:49;;;;;;;10.55;9.45;;;-2.20;1.40;;;-1.58;96.52;94177.84;641208;220;31913;-72
2021/01/01 03:19:17;;;;;;;9.60;8.60;;;-2.10;1.40;;;-1.55;96.12;94179.70;633340;225;23508;-73
2021/01/01 03:21:46;;;;;;;10.73;9.18;;;-2.10;1.40;;;-1.45;95.82;94176.47;623462;225;32221;-73
2021/01/01 03:24:14;;;;;;;11.33;8.90;;;-2.10;1.40;;;-1.49;96.54;94170.94;646727;220;25615;-73
2021/01/01 03:26:42;;;;;;;10.53;9.57;;;-2.20;1.40;;;-1.51;96.68;94168.19;633617;225;24550;-72
2021/01/01 03:31:45;;;;;;;10.05;9.05;;;-2.30;1.40;;;-1.48;96.56;94161.91;648886;212;31687;-72
2021/01/01 03:34:14;;;;;;;11.93;9.27;;;-2.30;1.40;;;-1.48;96.91;94154.73;643975;220;25857;-73
2021/01/01 03:36:43;;;;;;;9.43;8.43;;;-2.40;1.40;;;-1.57;96.78;94154.09;640950;220;24528;-72
2021/01/01 03:39:11;;;;;;;8.93;8.03;;;-2.50;1.40;;;-1.74;97.07;94160.22;635370;221;25669;-72
2021/01/01 03:41:39;;;;;;;10.90;9.80;;;-2.60;1.40;;;-1.81;97.63;94155.94;632108;225;24564;-72
2021/01/01 03:44:08;;;;;;;12.57;9.30;;;-2.70;1.40;;;-1.83;97.34;94151.26;621938;224;31942;-73
2021/01/01 03:46:36;;;;;;;11.57;10.50;;;-2.80;1.40;;;-1.82;97.01;94154.28;629367;225;23525;-73
2021/01/01 03:49:05;;;;;;;12.75;10.30;;;-2.70;1.40;;;-1.85;96.88;94156.56;623700;225;34792;-72
2021/01/01 03:51:33;;;;;;;11.07;9.00;;;-2.70;1.40;;;-1.88;97.45;94171.92;640309;220;23488;-73
2021/01/01 03:54:01;;;;;;;12.65;10.50;;;-2.80;1.40;;;-2.11;100.00;94171.52;625158;225;42830;-74
2021/01/01 03:56:30;;;;;;;10.23;9.20;;;-2.80;1.40;;;-2.27;100.00;94170.17;655393;215;27825;-73
2021/01/01 03:58:58;;;;;;;9.43;8.43;;;-2.90;1.40;;;-2.31;100.00;94166.86;655389;215;24472;-72
2021/01/01 04:01:26;;;;;;;9.90;8.50;;;-3.00;1.40;;;-2.46;100.00;94169.02;630682;225;24563;-72
2021/01/01 04:03:55;;;;;;;13.50;9.90;;;-3.00;1.40;;;-2.52;100.00;94168.29;659179;215;24500;-73
2021/01/01 04:06:23;;;;;;;12.50;11.20;;;-3.00;1.40;;;-2.49;100.00;94175.95;624816;225;31921;-71
2021/01/01 04:08:52;;;;;;;13.20;10.50;;;-3.00;1.40;;;-2.46;100.00;94173.16;654261;216;23438;-72
2021/01/01 04:11:20;;;;;;;13.90;9.60;;;-3.10;1.40;;;-2.48;100.00;94164.44;655423;216;24988;-72
2021/01/01 04:13:48;;;;;;;10.97;8.90;;;-3.10;1.40;;;-2.43;100.00;94164.21;653989;215;24478;-73
2021/01/01 04:16:17;;;;;;;11.95;10.75;;;-3.20;1.40;;;-2.38;100.00;94170.91;648622;216;31617;-72
2021/01/01 04:18:45;;;;;;;16.97;10.77;;;-3.20;1.40;;;-2.45;100.00;94175.71;654706;216;23454;-72
2021/01/01 04:21:14;;;;;;;13.68;12.27;;;-3.20;1.40;;;-2.55;100.00;94179.30;652629;215;32121;-73
2021/01/01 04:23:42;;;;;;;14.68;12.27;;;-3.30;1.40;;;-2.54;100.00;94176.66;622621;225;31953;-72
2021/01/01 04:26:13;;;;;;;12.23;10.83;;;-3.40;1.40;;;-2.66;100.00;94170.23;631238;225;24059;-73
2021/01/01 04:28:39;;;;;;;12.00;9.47;;;-3.50;1.40;;;-2.75;100.00;94175.63;654611;216;24575;-73
2021/01/01 04:31:07;;;;;;;11.57;9.98;;;-3.40;1.40;;;-2.63;100.00;94174.23;648864;215;31607;-72
2021/01/01 04:33:38;;;;;;;10.97;9.90;;;-3.30;1.40;;;-2.56;100.00;94171.28;632130;225;23527;-73
2021/01/01 04:36:07;;;;;;;10.23;9.23;;;-3.20;1.40;;;-2.63;100.00;94178.84;655023;216;24484;-72
2021/01/01 04:38:37;;;;;;;12.25;11.02;;;-3.30;1.40;;;-2.65;100.00;94180.11;651029;216;31571;-73
2021/01/01 04:41:06;;;;;;;10.10;8.80;;;-3.30;1.40;;;-2.64;100.00;94179.84;653292;215;23484;-73
2021/01/01 04:43:35;;;;;;;12.05;10.02;;;-3.20;1.40;;;-2.59;100.00;94181.13;656249;215;31673;-73
2021/01/01 04:46:03;;;;;;;11.43;9.47;;;-3.20;1.40;;;-2.63;100.00;94173.97;657692;215;23447;-73
2021/01/01 04:48:32;;;;;;;13.40;12.00;;;-3.20;1.40;;;-2.40;100.00;94171.47;632667;221;32342;-73
2021/01/01 04:51:00;;;;;;;10.93;9.83;;;-3.10;1.40;;;-2.32;100.00;94173.27;645979;221;24176;-73
2021/01/01 04:53:28;;;;;;;11.95;10.32;;;-3.00;1.40;;;-2.25;100.00;94175.02;636326;221;31811;-73
2021/01/01 04:55:57;;;;;;;12.07;10.80;;;-3.00;1.40;;;-2.28;100.00;94179.14;640804;220;24562;-73
2021/01/01 04:58:25;;;;;;;11.20;8.23;;;-3.00;1.40;;;-2.24;100.00;94171.09;642345;220;24524;-72
2021/01/01 05:00:55;;;;;;;11.77;9.52;;;-3.00;1.40;;;-2.22;100.00;94174.95;635285;220;32535;-72
2021/01/01 05:03:23;;;;;;;10.40;8.20;;;-3.00;1.40;;;-2.15;100.00;94180.14;639774;220;23483;-73
2021/01/01 05:05:51;;;;;;;10.43;8.03;;;-2.90;1.40;;;-2.17;100.00;94182.78;641446;220;24538;-74
2021/01/01 05:08:20;;;;;;;11.68;10.00;;;-2.90;1.40;;;-1.95;100.00;94180.06;638939;220;31787;-73
2021/01/01 05:10:48;;;;;;;11.00;9.33;;;-2.90;1.40;;;-2.10;100.00;94180.81;640220;220;23506;-72
2021/01/01 05:13:17;;;;;;;10.80;9.70;;;-3.00;1.40;;;-2.12;100.00;94181.65;636408;220;31746;-73
2021/01/01 05:15:45;;;;;;;11.85;10.40;;;-3.10;1.40;;;-2.13;100.00;94174.27;635899;220;31931;-72
2021/01/01 05:18:21;;;;;;;12.23;10.93;;;-3.10;1.40;;;-2.26;100.00;94179.68;639106;220;31864;-73
2021/01/01 05:20:49;;;;;;;10.80;9.10;;;-3.10;1.40;;;-2.44;100.00;94186.91;639470;220;23507;-73
2021/01/01 05:23:24;;;;;;;10.17;9.17;;;-3.20;1.40;;;-2.48;100.00;94199.45;643351;221;24520;-73
2021/01/01 05:26:06;;;;;;;10.93;8.50;;;-3.20;1.40;;;-2.44;100.00;94198.70;643377;221;25111;-73
2021/01/01 05:28:52;;;;;;;8.43;7.63;;;-3.20;1.40;;;-2.49;100.00;94205.13;655658;216;27632;-73
2021/01/01 05:31:30;;;;;;;10.73;9.55;;;-3.30;1.40;;;-2.47;100.00;94205.46;646431;216;31608;-72
2021/01/01 05:35:51;;;;;;;11.30;9.35;;;-3.40;1.40;;;-2.67;100.00;94196.27;646137;216;31564;-72
2021/01/01 05:38:21;;;;;;;9.60;8.73;;;-3.40;1.40;;;-2.83;100.00;94192.72;639735;221;23489;-72
2021/01/01 05:40:49;;;;;;;9.07;8.17;;;-3.50;1.40;;;-2.92;100.00;94188.08;642853;221;24520;-72
2021/01/01 05:43:17;;;;;;;9.90;8.73;;;-3.60;1.40;;;-2.86;100.00;94194.75;633775;221;31777;-72
2021/01/01 05:45:46;;;;;;;9.80;8.80;;;-3.70;1.40;;;-2.76;100.00;94197.62;641514;221;24074;-72
2021/01/01 05:48:16;;;;;;;12.65;10.35;;;-3.60;1.40;;;-2.88;100.00;94202.95;636986;221;31785;-72
2021/01/01 05:50:43;;;;;;;10.47;7.73;;;-3.60;1.40;;;-3.06;100.00;94215.06;639451;221;23580;-71
2021/01/01 05:53:13;;;;;;;9.37;8.43;;;-3.70;1.40;;;-3.18;100.00;94220.06;640871;220;24517;-72
2021/01/01 05:55:41;;;;;;;12.48;9.70;;;-3.80;1.40;;;-3.11;100.00;94213.11;634136;221;31778;-72
2021/01/01 05:58:21;;;;;;;10.82;9.40;;;-3.90;1.40;;;-3.09;100.00;94214.66;635732;221;31923;-73
2021/01/01 06:00:50;;;;;;;10.10;8.57;;;-3.90;1.40;;;-3.27;100.00;94225.64;640081;221;23479;-72
2021/01/01 06:03:18;;;;;;;11.15;9.95;;;-4.00;1.40;;;-3.36;100.00;94228.80;634230;220;32599;-72
2021/01/01 06:05:46;;;;;;;11.30;9.03;;;-4.00;1.40;;;-3.45;100.00;94231.98;642953;220;23592;-71
2021/01/01 06:08:15;;;;;;;12.30;9.70;;;-4.00;1.40;;;-3.45;100.00;94231.50;664148;211;31933;-72
2021/01/01 06:10:43;;;;;;;9.47;8.67;;;-4.10;1.40;;;-3.47;100.00;94243.34;668509;211;23454;-72
2021/01/01 06:13:12;;;;;;;10.90;9.80;;;-4.20;1.40;;;-3.35;100.00;94242.80;668360;211;24453;-73
2021/01/01 06:15:40;;;;;;;13.00;10.38;;;-4.10;1.40;;;-3.36;100.00;94249.04;662296;211;31395;-72
2021/01/01 06:18:09;;;;;;;10.87;9.20;;;-4.00;1.40;;;-3.38;100.00;94241.92;655134;216;24512;-73
2021/01/01 06:20:37;;;;;;;10.70;9.60;;;-3.90;1.40;;;-3.44;100.00;94237.92;666931;211;31488;-72
2021/01/01 06:23:06;;;;;;;9.47;8.57;;;-3.90;1.40;;;-3.47;100.00;94248.48;670383;211;23467;-72
2021/01/01 06:25:35;;;;;;;11.38;9.75;;;-4.00;1.40;;;-3.47;100.00;94252.83;636893;221;31706;-72
2021/01/01 06:28:03;;;;;;;10.17;9.10;;;-4.10;1.40;;;-3.55;100.00;94251.33;667617;211;23429;-73
2021/01/01 06:30:32;;;;;;;9.80;8.90;;;-4.10;1.40;;;-3.61;100.00;94257.14;669134;211;24477;-72
2021/01/01 06:33:00;;;;;;;12.15;9.80;;;-4.10;1.40;;;-3.60;100.00;94264.56;660890;211;32015;-73
2021/01/01 06:35:28;;;;;;;10.20;9.10;;;-4.00;1.40;;;-3.49;100.00;94269.44;662348;211;31972;-72
2021/01/01 06:37:57;;;;;;;9.70;8.70;;;-3.90;1.40;;;-3.42;100.00;94273.91;670296;211;30809;-72
2021/01/01 06:40:33;;;;;;;10.40;8.90;;;-3.80;1.40;;;-3.41;100.00;94270.65;667859;211;24438;-72
2021/01/01 06:43:01;;;;;;;10.40;9.30;;;-3.80;1.40;;;-3.39;100.00;94270.30;669332;211;31427;-72
2021/01/01 06:45:43;;;;;;;10.97;9.23;;;-3.90;1.40;;;-3.29;100.00;94276.97;669004;210;23948;-72
2021/01/01 06:48:13;;;;;;;10.10;9.10;;;-3.90;1.40;;;-3.25;100.00;94281.34;665453;210;41990;-72
2021/01/01 06:50:42;;;;;;;9.83;8.93;;;-3.80;1.40;;;-3.40;100.00;94282.68;666072;211;23444;-72
2021/01/01 06:53:11;;;;;;;11.88;9.50;;;-4.00;1.40;;;-3.31;100.00;94286.95;665397;211;31452;-72
2021/01/01 06:55:43;;;;;;;14.77;11.33;;;-3.90;1.40;;;-3.38;100.00;94290.81;669854;211;23461;-72
2021/01/01 06:58:11;;;;;;;11.63;9.57;;;-4.00;1.40;;;-3.34;100.00;94292.69;652159;216;31629;-73
2021/01/01 07:01:00;;;;;;;11.40;8.27;;;-4.10;1.40;;;-3.64;100.00;94302.42;654553;215;26026;-72
2021/01/01 07:03:34;;;;;;;12.73;10.80;;;-4.20;1.40;;;-3.60;100.00;94304.81;663577;211;31440;-72
2021/01/01 07:06:32;;;;;;;11.20;9.97;;;-4.10;1.40;;;-3.53;100.00;94304.21;655168;216;23445;-72
2021/01/01 07:09:00;;;;;;;11.85;10.13;;;-4.00;1.40;;;-3.45;100.00;94308.05;664790;211;31417;-72
2021/01/01 07:11:35;;;;;;;12.20;9.17;;;-3.90;1.40;;;-3.45;100.00;94305.61;667651;211;23779;-72
2021/01/01 07:14:06;;;;;;;12.35;10.13;;;-3.90;1.40;;;-3.43;100.00;94299.97;646941;216;31567;-72
2021/01/01 07:16:37;;;;;;;12.83;9.33;;;-3.90;1.40;;;-3.47;100.00;94301.35;653949;216;23456;-72
2021/01/01 07:19:06;;;;;;;11.00;9.90;;;-4.00;1.40;;;-3.46;100.00;94302.38;660886;211;31565;-72
2021/01/01 07:21:34;;;;;;;12.43;10.27;;;-4.10;1.40;;;-3.56;100.00;94302.42;651755;216;23452;-73
2021/01/01 07:24:03;;;;;;;12.27;10.15;;;-4.20;1.40;;;-3.49;100.00;94302.33;651488;216;31677;-72
2021/01/01 07:26:31;;;;;;;11.87;9.80;;;-4.10;1.40;;;-3.58;100.00;94305.16;670564;211;23426;-72
2021/01/01 07:28:59;;;;;;;12.30;10.88;;;-4.10;1.40;;;-3.62;100.00;94311.35;661183;211;31528;-72
2021/01/01 07:31:28;;;;;;;9.40;8.50;;;-4.00;1.40;;;-3.58;100.00;94315.27;652429;216;23807;-72
2021/01/01 07:33:56;;;;;;;9.43;8.13;;;-4.10;1.40;;;-3.48;100.00;94315.01;645500;221;32301;-72
2021/01/01 07:36:25;;;;;;;13.30;9.77;;;-4.00;1.40;;;-3.35;100.00;94320.52;662809;211;31394;-72
2021/01/01 07:38:53;;;;;;;9.23;8.33;;;-3.80;1.40;;;-3.26;100.00;94323.25;654738;216;23491;-72
2021/01/01 07:41:21;;;;;;;9.88;8.82;;;-3.70;1.40;;;-3.15;100.00;94323.67;664397;211;31418;-73
2021/01/01 07:43:50;;;;;;;9.98;8.98;;;-3.60;1.40;;;-3.20;100.00;94323.44;662852;211;42296;-73
2021/01/01 07:46:18;;;;;;;9.63;8.73;;;-3.60;1.40;;;-3.15;100.00;94334.97;667107;211;23453;-73
2021/01/01 07:48:46;;;;;;;11.43;9.10;;;-3.50;1.40;;;-3.03;100.00;94335.59;661997;211;31487;-73
2021/01/01 07:51:15;;;;;;;8.23;7.30;;;-3.50;1.40;;;-2.92;100.00;94336.80;654012;216;23442;-73
2021/01/01 07:53:43;;;;;;;9.63;8.23;;;-3.40;1.40;;;-2.92;100.00;94338.44;650905;216;31619;-74
2021/01/01 07:56:12;;;;;;;10.23;9.00;;;-3.30;1.40;;;-2.76;100.00;94340.72;669141;211;24167;-72
2021/01/01 07:58:40;;;;;;;11.57;10.38;;;-3.20;1.40;;;-2.67;100.00;94346.31;662281;211;42430;-73
2021/01/01 08:01:08;;;;;;;9.20;8.40;;;-3.10;1.40;;;-2.58;100.00;94351.05;669199;211;23561;-73
2021/01/01 08:03:37;;;;;;;10.97;9.87;;;-3.00;1.40;;;-2.29;100.00;94352.80;662311;211;46437;-73
2021/01/01 08:06:07;;;;;;;10.85;9.75;;;-2.80;1.40;;;-2.10;100.00;94352.94;640007;220;31773;-73
2021/01/01 08:08:35;;;;;;;12.20;10.90;;;-2.60;1.40;;;-1.94;100.00;94343.84;639955;221;32312;-73
2021/01/01 08:11:04;;;;;;;11.83;9.50;;;-2.50;1.40;;;-1.65;99.43;94339.65;641643;222;23469;-72
2021/01/01 08:16:13;;;;;;;12.65;10.90;;;-2.30;1.40;;;-1.95;99.62;94329.13;647213;216;31590;-70
2021/01/01 08:18:41;;;;;;;13.13;10.80;;;-2.40;1.40;;;-1.97;100.00;94331.88;634598;220;32414;-70
2021/01/01 08:21:09;;;;;;;9.90;8.50;;;-2.50;1.40;;;-1.67;100.00;94336.61;642119;220;24626;-70
2021/01/01 08:23:46;;;;;;;11.47;10.10;;;-2.30;1.40;;;-1.38;98.86;94343.61;654806;216;24488;-70
2021/01/01 08:26:15;;;;;;;9.20;8.23;;;-2.20;1.40;;;-1.33;97.56;94341.19;650549;219;24460;-70
2021/01/01 08:28:43;;;;;;;9.10;8.30;;;-2.00;1.40;;;-1.28;98.07;94336.35;672021;211;24462;-70
2021/01/01 08:31:11;;;;;;;10.57;9.20;;;-1.90;1.40;;;-1.22;97.88;94338.67;652655;215;24491;-70
2021/01/01 08:33:40;;;;;;;10.57;8.67;;;-1.70;1.40;;;-1.15;98.07;94345.08;653509;216;27812;-69
2021/01/01 08:36:09;;;;;;;11.40;9.80;;;-1.70;1.40;;;-1.10;98.30;94347.73;654345;215;24586;-70
2021/01/01 08:38:39;;;;;;;10.27;9.13;;;-1.60;1.40;;;-0.72;98.30;94352.30;667763;211;24488;-69
2021/01/01 08:41:07;;;;;;;11.57;9.43;;;-1.40;1.40;;;-0.30;96.25;94359.27;670517;211;27101;-69
2021/01/01 08:43:35;;;;;;;9.25;7.87;;;-1.20;1.40;;;-0.43;93.95;94354.64;662697;211;31841;-70
2021/01/01 08:46:03;;;;;;;14.70;7.97;;;-1.30;1.40;;;-0.42;94.57;94356.56;656025;215;23491;-71
2021/01/01 08:48:32;;;;;;;9.52;8.30;;;-1.30;1.40;;;-0.34;94.95;94364.01;651768;215;31630;-70
2021/01/01 08:51:00;;;;;;;9.17;7.37;;;-1.30;1.40;;;-0.22;95.09;94369.41;658582;215;23457;-71
2021/01/01 08:53:29;;;;;;;11.73;9.00;;;-1.00;1.40;;;0.02;94.82;94366.66;654359;215;31633;-71
2021/01/01 08:55:57;;;;;;;8.93;8.03;;;-0.70;1.40;;;0.35;94.32;94366.38;653064;216;23425;-70
2021/01/01 08:58:25;;;;;;;12.40;9.40;;;-0.40;1.40;;;0.98;92.47;94370.59;658201;216;24457;-71
2021/01/01 09:00:54;;;;;;;11.33;10.00;;;0.30;1.40;;;1.11;90.78;94368.73;655375;215;24503;-71
2021/01/01 09:03:22;;;;;;;10.03;9.00;;;0.30;1.40;;;2.50;86.17;94365.46;642729;216;47686;-71
2021/01/01 09:05:54;;;;;;;9.63;8.77;;;2.20;1.40;;;2.88;80.43;94372.86;629467;226;24584;-71
2021/01/01 09:08:22;;;;;;;9.20;8.40;;;1.70;1.40;;;2.90;79.32;94376.05;629852;226;24589;-71
2021/01/01 09:10:52;;;;;;;11.67;9.40;;;2.00;1.40;;;4.04;76.06;94381.33;629932;226;25662;-70
2021/01/01 09:13:26;;;;;;;9.37;8.40;;;3.20;1.40;;;3.81;73.40;94386.17;630345;226;28736;-71
2021/01/01 09:16:01;;;;;;;11.10;9.60;;;2.20;1.40;;;3.56;74.94;94394.08;628702;226;24589;-70
2021/01/01 09:18:29;;;;;;;11.07;9.70;;;2.00;1.40;;;3.40;76.18;94394.23;630876;226;26729;-70
2021/01/01 09:21:15;;;;;;;9.50;8.60;;;1.90;1.40;;;3.16;75.69;94392.76;629869;226;25593;-71
2021/01/01 09:23:49;;;;;;;9.77;8.00;;;1.60;1.40;;;2.64;76.67;94402.33;628135;226;25647;-71
2021/01/01 09:26:22;;;;;;;11.07;8.87;;;1.10;1.40;;;2.28;79.63;94404.22;629728;225;24565;-70
2021/01/01 09:28:50;;;;;;;8.97;8.10;;;0.90;1.40;;;2.13;81.53;94407.02;630111;226;24581;-70
2021/01/01 09:31:18;;;;;;;9.70;7.73;;;0.90;1.40;;;2.26;82.56;94412.20;630794;226;26635;-70
2021/01/01 09:33:58;;;;;;;9.07;8.07;;;1.00;1.40;;;2.07;83.23;94418.28;628588;226;24558;-70
2021/01/01 09:36:26;;;;;;;8.77;7.97;;;1.00;1.40;;;2.20;82.88;94417.94;630266;225;24570;-70
2021/01/01 09:38:55;;;;;;;9.18;8.00;;;1.10;1.40;;;2.20;83.25;94419.27;623578;226;31874;-70
2021/01/01 09:41:23;;;;;;;9.63;8.63;;;1.20;1.40;;;2.34;82.85;94422.03;624408;226;32057;-70
2021/01/01 09:43:51;;;;;;;8.90;7.87;;;1.20;1.40;;;2.34;82.58;94428.51;629480;225;24517;-70
2021/01/01 09:46:20;;;;;;;9.63;8.68;;;1.30;1.40;;;2.41;83.21;94425.47;623557;225;31895;-70
2021/01/01 09:48:48;;;;;;;9.47;8.57;;;1.20;1.40;;;2.53;83.64;94431.45;627772;226;26719;-70
2021/01/01 09:51:16;;;;;;;10.33;7.70;;;1.30;1.40;;;2.39;83.69;94435.59;630260;226;24596;-71
2021/01/01 09:53:45;;;;;;;10.10;8.37;;;1.20;1.40;;;2.15;84.08;94438.34;627243;225;26652;-71
2021/01/01 09:56:13;;;;;;;10.90;8.90;;;1.10;1.40;;;1.78;85.54;94444.73;631237;226;27895;-71
2021/01/01 09:58:42;;;;;;;9.43;7.37;;;0.90;1.40;;;1.53;86.48;94448.34;628651;226;25645;-70
2021/01/01 10:01:10;;;;;;;9.10;8.20;;;0.70;1.40;;;1.58;87.65;94446.88;629031;226;24621;-70
2021/01/01 10:03:38;;;;;;;8.40;7.53;;;0.80;1.40;;;1.80;86.78;94444.24;629588;226;28068;-70
2021/01/01 10:06:07;;;;;;;8.53;7.77;;;1.00;1.40;;;1.82;87.16;94446.27;628679;226;25651;-71
2021/01/01 10:08:35;;;;;;;9.30;8.33;;;1.00;1.40;;;2.01;87.79;94449.19;627547;226;25966;-71
2021/01/01 10:11:03;;;;;;;10.27;8.43;;;1.10;1.40;;;2.47;86.77;94445.78;624425;226;31975;-72
2021/01/01 10:13:32;;;;;;;10.07;9.07;;;1.40;1.40;;;2.48;85.95;94441.28;628381;225;24517;-71
2021/01/01 10:16:00;;;;;;;9.47;8.57;;;1.50;1.40;;;2.50;84.91;94442.59;628875;226;25851;-71
2021/01/01 10:18:29;;;;;;;8.50;7.60;;;1.50;1.40;;;2.81;83.77;94442.14;628179;226;24546;-71
2021/01/01 10:20:57;;;;;;;10.60;9.60;;;1.80;1.40;;;3.26;83.73;94439.20;625019;226;32303;-71
2021/01/01 10:23:25;;;;;;;10.37;9.37;;;1.90;1.40;;;3.56;80.25;94435.45;628479;226;24540;-71
2021/01/01 10:25:54;;;;;;;9.63;8.60;;;2.10;1.40;;;3.43;79.07;94437.55;630137;226;27785;-71
2021/01/01 10:28:22;;;;;;;9.10;8.30;;;2.00;1.40;;;3.80;79.42;94434.44;629856;226;26697;-71
2021/01/01 10:30:50;;;;;;;8.27;7.43;;;2.30;1.40;;;4.14;77.91;94438.77;629851;226;24652;-71
2021/01/01 10:33:19;;;;;;;9.47;8.37;;;2.60;1.40;;;4.00;77.39;94431.79;627874;226;25678;-71
2021/01/01 10:35:47;;;;;;;9.93;8.75;;;2.50;1.40;;;3.85;77.96;94429.06;624904;226;31931;-71